sensor_id;sensor_type;location;lat;lon;timestamp;P1;durP1;ratioP1;P2;durP2;ratioP2
14247;SDS011;7208;49.826;6.004;2022-08-21T00:00:37;3.07;;;1.50;;
14247;SDS011;7208;49.826;6.004;2022-08-21T00:03:06;3.47;;;1.83;;
14247;SDS011;7208;49.826;6.004;2022-08-21T00:05:33;7.40;;;2.27;;
14247;SDS011;7208;49.826;6.004;2022-08-21T00:07:59;3.93;;;1.70;;
14247;SDS011;7208;49.826;6.004;2022-08-21T00:10:25;4.70;;;1.87;;
14247;SDS011;7208;49.826;6.004;2022-08-21T00:12:51;1.70;;;1.60;;
14247;SDS011;7208;49.826;6.004;2022-08-21T00:15:21;4.07;;;1.87;;
14247;SDS011;7208;49.826;6.004;2022-08-21T00:17:47;3.80;;;2.00;;
14247;SDS011;7208;49.826;6.004;2022-08-21T00:20:14;5.53;;;1.70;;
14247;SDS011;7208;49.826;6.004;2022-08-21T00:22:41;5.37;;;2.37;;
14247;SDS011;7208;49.826;6.004;2022-08-21T00:25:07;5.90;;;1.97;;
14247;SDS011;7208;49.826;6.004;2022-08-21T00:27:34;5.50;;;2.43;;
14247;SDS011;7208;49.826;6.004;2022-08-21T00:30:00;3.90;;;2.17;;
14247;SDS011;7208;49.826;6.004;2022-08-21T00:32:26;3.27;;;1.80;;
14247;SDS011;7208;49.826;6.004;2022-08-21T00:34:53;4.43;;;1.90;;
14247;SDS011;7208;49.826;6.004;2022-08-21T00:37:19;2.67;;;2.00;;
14247;SDS011;7208;49.826;6.004;2022-08-21T00:39:45;4.33;;;2.23;;
14247;SDS011;7208;49.826;6.004;2022-08-21T00:42:12;2.53;;;1.97;;
14247;SDS011;7208;49.826;6.004;2022-08-21T00:44:42;4.73;;;2.17;;
14247;SDS011;7208;49.826;6.004;2022-08-21T00:47:09;3.90;;;1.97;;
14247;SDS011;7208;49.826;6.004;2022-08-21T00:49:35;4.60;;;2.20;;
14247;SDS011;7208;49.826;6.004;2022-08-21T00:52:02;3.67;;;2.13;;
14247;SDS011;7208;49.826;6.004;2022-08-21T00:54:29;8.07;;;2.70;;
14247;SDS011;7208;49.826;6.004;2022-08-21T00:56:57;4.47;;;2.03;;
14247;SDS011;7208;49.826;6.004;2022-08-21T00:59:24;5.80;;;2.23;;
14247;SDS011;7208;49.826;6.004;2022-08-21T01:01:50;7.03;;;2.50;;
14247;SDS011;7208;49.826;6.004;2022-08-21T01:04:17;6.60;;;2.30;;
14247;SDS011;7208;49.826;6.004;2022-08-21T01:06:43;3.37;;;2.17;;
14247;SDS011;7208;49.826;6.004;2022-08-21T01:09:10;2.93;;;2.63;;
14247;SDS011;7208;49.826;6.004;2022-08-21T01:11:36;2.30;;;1.97;;
14247;SDS011;7208;49.826;6.004;2022-08-21T01:14:02;3.83;;;2.17;;
14247;SDS011;7208;49.826;6.004;2022-08-21T01:16:28;5.43;;;2.60;;
14247;SDS011;7208;49.826;6.004;2022-08-21T01:18:54;4.13;;;2.47;;
14247;SDS011;7208;49.826;6.004;2022-08-21T01:21:22;2.93;;;2.03;;
14247;SDS011;7208;49.826;6.004;2022-08-21T01:23:50;4.13;;;1.67;;
14247;SDS011;7208;49.826;6.004;2022-08-21T01:26:17;4.07;;;2.20;;
14247;SDS011;7208;49.826;6.004;2022-08-21T01:28:52;3.10;;;2.07;;
14247;SDS011;7208;49.826;6.004;2022-08-21T01:31:20;5.27;;;2.47;;
14247;SDS011;7208;49.826;6.004;2022-08-21T01:33:47;4.47;;;2.20;;
14247;SDS011;7208;49.826;6.004;2022-08-21T01:36:13;3.20;;;2.40;;
14247;SDS011;7208;49.826;6.004;2022-08-21T01:38:39;5.07;;;2.90;;
14247;SDS011;7208;49.826;6.004;2022-08-21T01:41:05;3.90;;;2.40;;
14247;SDS011;7208;49.826;6.004;2022-08-21T01:43:32;4.03;;;2.23;;
14247;SDS011;7208;49.826;6.004;2022-08-21T01:45:58;3.83;;;2.30;;
14247;SDS011;7208;49.826;6.004;2022-08-21T01:48:24;3.40;;;2.50;;
14247;SDS011;7208;49.826;6.004;2022-08-21T01:50:50;5.43;;;2.23;;
14247;SDS011;7208;49.826;6.004;2022-08-21T01:53:16;5.87;;;3.37;;
14247;SDS011;7208;49.826;6.004;2022-08-21T01:55:42;4.30;;;2.23;;
14247;SDS011;7208;49.826;6.004;2022-08-21T01:58:08;6.10;;;1.97;;
14247;SDS011;7208;49.826;6.004;2022-08-21T02:00:34;6.77;;;2.73;;
14247;SDS011;7208;49.826;6.004;2022-08-21T02:03:00;4.60;;;2.70;;
14247;SDS011;7208;49.826;6.004;2022-08-21T02:05:26;4.87;;;2.87;;
14247;SDS011;7208;49.826;6.004;2022-08-21T02:07:53;7.63;;;3.07;;
14247;SDS011;7208;49.826;6.004;2022-08-21T02:10:24;2.70;;;2.20;;
14247;SDS011;7208;49.826;6.004;2022-08-21T02:12:51;7.20;;;2.87;;
14247;SDS011;7208;49.826;6.004;2022-08-21T02:15:17;4.17;;;2.17;;
14247;SDS011;7208;49.826;6.004;2022-08-21T02:17:45;4.17;;;2.67;;
14247;SDS011;7208;49.826;6.004;2022-08-21T02:20:15;3.87;;;2.50;;
14247;SDS011;7208;49.826;6.004;2022-08-21T02:22:42;4.90;;;2.47;;
14247;SDS011;7208;49.826;6.004;2022-08-21T02:25:08;3.97;;;2.50;;
14247;SDS011;7208;49.826;6.004;2022-08-21T02:27:41;3.37;;;2.43;;
14247;SDS011;7208;49.826;6.004;2022-08-21T02:30:09;4.60;;;2.70;;
14247;SDS011;7208;49.826;6.004;2022-08-21T02:32:36;4.27;;;2.40;;
14247;SDS011;7208;49.826;6.004;2022-08-21T02:35:02;4.67;;;2.50;;
14247;SDS011;7208;49.826;6.004;2022-08-21T02:37:28;4.83;;;2.70;;
14247;SDS011;7208;49.826;6.004;2022-08-21T02:39:54;3.33;;;2.60;;
14247;SDS011;7208;49.826;6.004;2022-08-21T02:42:20;4.33;;;2.70;;
14247;SDS011;7208;49.826;6.004;2022-08-21T02:44:46;4.73;;;2.40;;
14247;SDS011;7208;49.826;6.004;2022-08-21T02:47:13;3.70;;;1.90;;
14247;SDS011;7208;49.826;6.004;2022-08-21T02:49:39;4.93;;;2.57;;
14247;SDS011;7208;49.826;6.004;2022-08-21T02:52:05;5.00;;;2.40;;
14247;SDS011;7208;49.826;6.004;2022-08-21T02:54:31;3.20;;;1.83;;
14247;SDS011;7208;49.826;6.004;2022-08-21T02:56:57;2.77;;;2.40;;
14247;SDS011;7208;49.826;6.004;2022-08-21T02:59:23;5.97;;;2.53;;
14247;SDS011;7208;49.826;6.004;2022-08-21T03:01:49;5.03;;;2.67;;
14247;SDS011;7208;49.826;6.004;2022-08-21T03:04:15;5.73;;;3.03;;
14247;SDS011;7208;49.826;6.004;2022-08-21T03:06:41;3.57;;;2.40;;
14247;SDS011;7208;49.826;6.004;2022-08-21T03:09:08;3.53;;;2.40;;
14247;SDS011;7208;49.826;6.004;2022-08-21T03:11:34;4.50;;;2.67;;
14247;SDS011;7208;49.826;6.004;2022-08-21T03:14:00;3.87;;;2.30;;
14247;SDS011;7208;49.826;6.004;2022-08-21T03:16:26;4.50;;;2.53;;
14247;SDS011;7208;49.826;6.004;2022-08-21T03:18:52;3.00;;;2.27;;
14247;SDS011;7208;49.826;6.004;2022-08-21T03:21:18;6.00;;;1.67;;
14247;SDS011;7208;49.826;6.004;2022-08-21T03:23:44;3.63;;;2.50;;
14247;SDS011;7208;49.826;6.004;2022-08-21T03:26:11;5.53;;;2.63;;
14247;SDS011;7208;49.826;6.004;2022-08-21T03:28:37;3.43;;;2.60;;
14247;SDS011;7208;49.826;6.004;2022-08-21T03:31:03;4.40;;;2.83;;
14247;SDS011;7208;49.826;6.004;2022-08-21T03:33:30;4.97;;;2.70;;
14247;SDS011;7208;49.826;6.004;2022-08-21T03:35:58;5.10;;;2.57;;
14247;SDS011;7208;49.826;6.004;2022-08-21T03:38:26;5.00;;;2.27;;
14247;SDS011;7208;49.826;6.004;2022-08-21T03:40:52;5.10;;;2.70;;
14247;SDS011;7208;49.826;6.004;2022-08-21T03:43:18;4.40;;;2.50;;
14247;SDS011;7208;49.826;6.004;2022-08-21T03:45:44;6.20;;;3.03;;
14247;SDS011;7208;49.826;6.004;2022-08-21T03:48:10;5.37;;;3.10;;
14247;SDS011;7208;49.826;6.004;2022-08-21T03:50:37;7.40;;;2.20;;
14247;SDS011;7208;49.826;6.004;2022-08-21T03:53:05;3.63;;;2.57;;
14247;SDS011;7208;49.826;6.004;2022-08-21T03:55:31;3.20;;;2.33;;
14247;SDS011;7208;49.826;6.004;2022-08-21T03:57:57;3.33;;;2.37;;
14247;SDS011;7208;49.826;6.004;2022-08-21T04:00:24;6.73;;;2.83;;
14247;SDS011;7208;49.826;6.004;2022-08-21T04:02:50;4.93;;;2.90;;
14247;SDS011;7208;49.826;6.004;2022-08-21T04:05:17;5.80;;;2.33;;
14247;SDS011;7208;49.826;6.004;2022-08-21T04:07:55;4.13;;;2.10;;
14247;SDS011;7208;49.826;6.004;2022-08-21T04:10:22;4.97;;;2.40;;
14247;SDS011;7208;49.826;6.004;2022-08-21T04:12:49;4.57;;;3.20;;
14247;SDS011;7208;49.826;6.004;2022-08-21T04:15:17;4.30;;;1.90;;
14247;SDS011;7208;49.826;6.004;2022-08-21T04:17:43;5.63;;;2.50;;
14247;SDS011;7208;49.826;6.004;2022-08-21T04:20:09;2.83;;;2.23;;
14247;SDS011;7208;49.826;6.004;2022-08-21T04:22:35;3.87;;;2.03;;
14247;SDS011;7208;49.826;6.004;2022-08-21T04:25:01;5.23;;;1.93;;
14247;SDS011;7208;49.826;6.004;2022-08-21T04:27:27;2.87;;;2.30;;
14247;SDS011;7208;49.826;6.004;2022-08-21T04:29:53;4.57;;;2.53;;
14247;SDS011;7208;49.826;6.004;2022-08-21T04:32:25;3.67;;;2.33;;
14247;SDS011;7208;49.826;6.004;2022-08-21T04:34:57;5.07;;;3.03;;
14247;SDS011;7208;49.826;6.004;2022-08-21T04:37:23;3.03;;;2.40;;
14247;SDS011;7208;49.826;6.004;2022-08-21T04:39:49;5.53;;;2.30;;
14247;SDS011;7208;49.826;6.004;2022-08-21T04:42:15;6.07;;;2.37;;
14247;SDS011;7208;49.826;6.004;2022-08-21T04:44:42;2.73;;;2.37;;
14247;SDS011;7208;49.826;6.004;2022-08-21T04:47:08;5.13;;;2.70;;
14247;SDS011;7208;49.826;6.004;2022-08-21T04:49:34;3.53;;;2.13;;
14247;SDS011;7208;49.826;6.004;2022-08-21T04:52:00;4.73;;;2.50;;
14247;SDS011;7208;49.826;6.004;2022-08-21T04:54:26;4.23;;;2.47;;
14247;SDS011;7208;49.826;6.004;2022-08-21T04:56:53;4.30;;;2.90;;
14247;SDS011;7208;49.826;6.004;2022-08-21T04:59:21;3.07;;;2.30;;
14247;SDS011;7208;49.826;6.004;2022-08-21T05:01:48;3.17;;;2.40;;
14247;SDS011;7208;49.826;6.004;2022-08-21T05:04:16;2.57;;;2.23;;
14247;SDS011;7208;49.826;6.004;2022-08-21T05:06:43;2.50;;;2.30;;
14247;SDS011;7208;49.826;6.004;2022-08-21T05:09:11;5.63;;;2.33;;
14247;SDS011;7208;49.826;6.004;2022-08-21T05:11:38;2.93;;;2.20;;
14247;SDS011;7208;49.826;6.004;2022-08-21T05:14:05;5.70;;;3.90;;
14247;SDS011;7208;49.826;6.004;2022-08-21T05:16:31;2.90;;;2.40;;
14247;SDS011;7208;49.826;6.004;2022-08-21T05:18:57;2.47;;;2.30;;
14247;SDS011;7208;49.826;6.004;2022-08-21T05:21:23;5.93;;;2.33;;
14247;SDS011;7208;49.826;6.004;2022-08-21T05:23:49;4.53;;;3.13;;
14247;SDS011;7208;49.826;6.004;2022-08-21T05:26:15;5.20;;;2.30;;
14247;SDS011;7208;49.826;6.004;2022-08-21T05:28:41;3.17;;;2.47;;
14247;SDS011;7208;49.826;6.004;2022-08-21T05:31:07;3.47;;;2.10;;
14247;SDS011;7208;49.826;6.004;2022-08-21T05:33:33;4.67;;;2.70;;
14247;SDS011;7208;49.826;6.004;2022-08-21T05:35:59;4.03;;;2.20;;
14247;SDS011;7208;49.826;6.004;2022-08-21T05:38:25;3.47;;;2.50;;
14247;SDS011;7208;49.826;6.004;2022-08-21T05:40:53;4.90;;;2.50;;
14247;SDS011;7208;49.826;6.004;2022-08-21T05:43:19;2.77;;;2.17;;
14247;SDS011;7208;49.826;6.004;2022-08-21T05:45:45;3.10;;;2.30;;
14247;SDS011;7208;49.826;6.004;2022-08-21T05:50:38;3.70;;;2.10;;
14247;SDS011;7208;49.826;6.004;2022-08-21T05:53:05;6.43;;;2.23;;
14247;SDS011;7208;49.826;6.004;2022-08-21T05:55:31;3.60;;;2.30;;
14247;SDS011;7208;49.826;6.004;2022-08-21T05:57:57;7.17;;;2.67;;
14247;SDS011;7208;49.826;6.004;2022-08-21T06:00:24;2.70;;;1.90;;
14247;SDS011;7208;49.826;6.004;2022-08-21T06:02:50;3.00;;;2.60;;
14247;SDS011;7208;49.826;6.004;2022-08-21T06:05:16;3.87;;;2.60;;
14247;SDS011;7208;49.826;6.004;2022-08-21T06:07:43;5.70;;;2.60;;
14247;SDS011;7208;49.826;6.004;2022-08-21T06:10:09;4.07;;;2.37;;
14247;SDS011;7208;49.826;6.004;2022-08-21T06:12:35;2.93;;;2.20;;
14247;SDS011;7208;49.826;6.004;2022-08-21T06:15:01;4.53;;;2.00;;
14247;SDS011;7208;49.826;6.004;2022-08-21T06:17:27;4.23;;;2.10;;
14247;SDS011;7208;49.826;6.004;2022-08-21T06:19:53;3.03;;;2.23;;
14247;SDS011;7208;49.826;6.004;2022-08-21T06:22:20;3.53;;;2.40;;
14247;SDS011;7208;49.826;6.004;2022-08-21T06:24:46;3.03;;;2.30;;
14247;SDS011;7208;49.826;6.004;2022-08-21T06:27:12;3.90;;;2.33;;
14247;SDS011;7208;49.826;6.004;2022-08-21T06:29:38;3.03;;;2.33;;
14247;SDS011;7208;49.826;6.004;2022-08-21T06:32:04;2.67;;;1.83;;
14247;SDS011;7208;49.826;6.004;2022-08-21T06:34:37;4.53;;;2.20;;
14247;SDS011;7208;49.826;6.004;2022-08-21T06:37:04;3.37;;;2.40;;
14247;SDS011;7208;49.826;6.004;2022-08-21T06:39:30;3.87;;;2.40;;
14247;SDS011;7208;49.826;6.004;2022-08-21T06:41:57;2.20;;;2.00;;
14247;SDS011;7208;49.826;6.004;2022-08-21T06:44:23;3.23;;;1.90;;
14247;SDS011;7208;49.826;6.004;2022-08-21T06:46:49;3.13;;;1.97;;
14247;SDS011;7208;49.826;6.004;2022-08-21T06:49:15;5.60;;;2.40;;
14247;SDS011;7208;49.826;6.004;2022-08-21T06:51:41;3.80;;;1.90;;
14247;SDS011;7208;49.826;6.004;2022-08-21T06:54:07;2.57;;;1.97;;
14247;SDS011;7208;49.826;6.004;2022-08-21T06:56:33;4.03;;;1.87;;
14247;SDS011;7208;49.826;6.004;2022-08-21T06:59:01;4.13;;;2.10;;
14247;SDS011;7208;49.826;6.004;2022-08-21T07:01:27;4.20;;;1.83;;
14247;SDS011;7208;49.826;6.004;2022-08-21T07:03:54;3.10;;;2.07;;
14247;SDS011;7208;49.826;6.004;2022-08-21T07:06:20;4.23;;;2.20;;
14247;SDS011;7208;49.826;6.004;2022-08-21T07:08:46;2.63;;;2.00;;
14247;SDS011;7208;49.826;6.004;2022-08-21T07:11:22;3.43;;;2.13;;
14247;SDS011;7208;49.826;6.004;2022-08-21T07:13:48;3.87;;;2.03;;
14247;SDS011;7208;49.826;6.004;2022-08-21T07:16:16;3.77;;;2.00;;
14247;SDS011;7208;49.826;6.004;2022-08-21T07:18:42;3.60;;;2.13;;
14247;SDS011;7208;49.826;6.004;2022-08-21T07:21:08;4.57;;;2.30;;
14247;SDS011;7208;49.826;6.004;2022-08-21T07:23:37;4.90;;;2.70;;
14247;SDS011;7208;49.826;6.004;2022-08-21T07:26:03;4.00;;;2.10;;
14247;SDS011;7208;49.826;6.004;2022-08-21T07:28:29;4.47;;;2.03;;
14247;SDS011;7208;49.826;6.004;2022-08-21T07:30:57;3.53;;;1.73;;
14247;SDS011;7208;49.826;6.004;2022-08-21T07:33:24;6.80;;;1.87;;
14247;SDS011;7208;49.826;6.004;2022-08-21T07:35:50;5.27;;;2.23;;
14247;SDS011;7208;49.826;6.004;2022-08-21T07:38:16;2.80;;;1.67;;
14247;SDS011;7208;49.826;6.004;2022-08-21T07:40:44;4.63;;;1.77;;
14247;SDS011;7208;49.826;6.004;2022-08-21T07:43:10;5.13;;;1.93;;
14247;SDS011;7208;49.826;6.004;2022-08-21T07:45:36;2.97;;;1.20;;
14247;SDS011;7208;49.826;6.004;2022-08-21T07:48:03;3.37;;;1.63;;
14247;SDS011;7208;49.826;6.004;2022-08-21T07:50:29;4.47;;;1.97;;
14247;SDS011;7208;49.826;6.004;2022-08-21T07:52:55;3.83;;;2.03;;
14247;SDS011;7208;49.826;6.004;2022-08-21T07:55:21;4.40;;;1.87;;
14247;SDS011;7208;49.826;6.004;2022-08-21T07:57:47;3.47;;;1.67;;
14247;SDS011;7208;49.826;6.004;2022-08-21T08:00:15;2.57;;;1.70;;
14247;SDS011;7208;49.826;6.004;2022-08-21T08:02:44;3.63;;;1.57;;
14247;SDS011;7208;49.826;6.004;2022-08-21T08:05:10;3.67;;;1.77;;
14247;SDS011;7208;49.826;6.004;2022-08-21T08:07:37;5.60;;;1.50;;
14247;SDS011;7208;49.826;6.004;2022-08-21T08:10:04;2.80;;;1.60;;
14247;SDS011;7208;49.826;6.004;2022-08-21T08:12:32;1.80;;;1.23;;
14247;SDS011;7208;49.826;6.004;2022-08-21T08:14:58;2.60;;;1.60;;
14247;SDS011;7208;49.826;6.004;2022-08-21T08:17:25;4.30;;;1.77;;
14247;SDS011;7208;49.826;6.004;2022-08-21T08:19:52;3.37;;;1.40;;
14247;SDS011;7208;49.826;6.004;2022-08-21T08:22:19;3.27;;;1.57;;
14247;SDS011;7208;49.826;6.004;2022-08-21T08:24:47;2.47;;;1.40;;
14247;SDS011;7208;49.826;6.004;2022-08-21T08:27:14;4.37;;;1.70;;
14247;SDS011;7208;49.826;6.004;2022-08-21T08:29:40;2.97;;;1.67;;
14247;SDS011;7208;49.826;6.004;2022-08-21T08:32:06;5.37;;;1.70;;
14247;SDS011;7208;49.826;6.004;2022-08-21T08:34:33;2.83;;;1.53;;
14247;SDS011;7208;49.826;6.004;2022-08-21T08:36:59;3.30;;;1.30;;
14247;SDS011;7208;49.826;6.004;2022-08-21T08:39:25;3.27;;;1.40;;
14247;SDS011;7208;49.826;6.004;2022-08-21T08:41:56;4.27;;;1.50;;
14247;SDS011;7208;49.826;6.004;2022-08-21T08:44:23;3.53;;;1.90;;
14247;SDS011;7208;49.826;6.004;2022-08-21T08:46:49;4.53;;;1.50;;
14247;SDS011;7208;49.826;6.004;2022-08-21T08:51:53;2.40;;;1.33;;
14247;SDS011;7208;49.826;6.004;2022-08-21T08:54:24;3.83;;;1.70;;
14247;SDS011;7208;49.826;6.004;2022-08-21T08:56:56;2.23;;;1.37;;
14247;SDS011;7208;49.826;6.004;2022-08-21T08:59:25;4.10;;;1.47;;
14247;SDS011;7208;49.826;6.004;2022-08-21T09:01:52;4.77;;;1.40;;
14247;SDS011;7208;49.826;6.004;2022-08-21T09:04:22;3.07;;;1.50;;
14247;SDS011;7208;49.826;6.004;2022-08-21T09:12:10;2.20;;;1.33;;
14247;SDS011;7208;49.826;6.004;2022-08-21T09:14:52;2.23;;;1.30;;
14247;SDS011;7208;49.826;6.004;2022-08-21T09:22:57;4.80;;;1.60;;
14247;SDS011;7208;49.826;6.004;2022-08-21T09:25:26;2.63;;;1.60;;
14247;SDS011;7208;49.826;6.004;2022-08-21T09:27:53;3.60;;;1.80;;
14247;SDS011;7208;49.826;6.004;2022-08-21T09:30:19;3.13;;;1.60;;
14247;SDS011;7208;49.826;6.004;2022-08-21T09:32:49;6.17;;;1.50;;
14247;SDS011;7208;49.826;6.004;2022-08-21T09:35:16;5.20;;;1.83;;
14247;SDS011;7208;49.826;6.004;2022-08-21T09:40:36;2.70;;;1.53;;
14247;SDS011;7208;49.826;6.004;2022-08-21T09:45:29;2.13;;;1.40;;
14247;SDS011;7208;49.826;6.004;2022-08-21T09:47:55;6.03;;;1.27;;
14247;SDS011;7208;49.826;6.004;2022-08-21T09:50:23;2.97;;;1.33;;
14247;SDS011;7208;49.826;6.004;2022-08-21T09:52:51;2.13;;;1.30;;
14247;SDS011;7208;49.826;6.004;2022-08-21T09:58:11;3.23;;;1.50;;
14247;SDS011;7208;49.826;6.004;2022-08-21T10:00:37;4.10;;;1.77;;
14247;SDS011;7208;49.826;6.004;2022-08-21T10:05:36;3.50;;;1.50;;
14247;SDS011;7208;49.826;6.004;2022-08-21T10:08:03;4.20;;;1.53;;
14247;SDS011;7208;49.826;6.004;2022-08-21T10:10:31;4.27;;;1.57;;
14247;SDS011;7208;49.826;6.004;2022-08-21T10:21:30;3.87;;;1.50;;
14247;SDS011;7208;49.826;6.004;2022-08-21T10:28:54;4.63;;;1.83;;
14247;SDS011;7208;49.826;6.004;2022-08-21T10:32:22;6.00;;;2.07;;
14247;SDS011;7208;49.826;6.004;2022-08-21T10:34:32;3.87;;;1.37;;
14247;SDS011;7208;49.826;6.004;2022-08-21T10:39:35;3.77;;;1.67;;
14247;SDS011;7208;49.826;6.004;2022-08-21T10:52:07;5.50;;;1.33;;
14247;SDS011;7208;49.826;6.004;2022-08-21T10:57:07;2.53;;;1.40;;
14247;SDS011;7208;49.826;6.004;2022-08-21T10:59:39;3.63;;;1.20;;
14247;SDS011;7208;49.826;6.004;2022-08-21T11:02:21;2.70;;;1.33;;
14247;SDS011;7208;49.826;6.004;2022-08-21T11:04:56;4.37;;;1.20;;
14247;SDS011;7208;49.826;6.004;2022-08-21T11:09:52;2.70;;;1.40;;
14247;SDS011;7208;49.826;6.004;2022-08-21T11:12:23;3.03;;;1.40;;
14247;SDS011;7208;49.826;6.004;2022-08-21T11:15:05;2.87;;;1.30;;
14247;SDS011;7208;49.826;6.004;2022-08-21T11:17:37;3.07;;;1.60;;
14247;SDS011;7208;49.826;6.004;2022-08-21T11:20:09;3.00;;;1.20;;
14247;SDS011;7208;49.826;6.004;2022-08-21T11:23:13;3.33;;;1.23;;
14247;SDS011;7208;49.826;6.004;2022-08-21T11:25:39;2.10;;;1.10;;
14247;SDS011;7208;49.826;6.004;2022-08-21T11:28:08;5.13;;;1.95;;
14247;SDS011;7208;49.826;6.004;2022-08-21T11:33:31;2.65;;;1.40;;
14247;SDS011;7208;49.826;6.004;2022-08-21T11:38:40;2.85;;;1.40;;
14247;SDS011;7208;49.826;6.004;2022-08-21T11:43:43;3.30;;;1.40;;
14247;SDS011;7208;49.826;6.004;2022-08-21T11:56:33;5.13;;;1.42;;
14247;SDS011;7208;49.826;6.004;2022-08-21T11:59:01;2.17;;;1.20;;
14247;SDS011;7208;49.826;6.004;2022-08-21T12:01:30;3.33;;;1.38;;
14247;SDS011;7208;49.826;6.004;2022-08-21T12:04:00;4.38;;;1.42;;
14247;SDS011;7208;49.826;6.004;2022-08-21T12:06:40;2.55;;;1.10;;
14247;SDS011;7208;49.826;6.004;2022-08-21T12:09:09;2.13;;;1.35;;
14247;SDS011;7208;49.826;6.004;2022-08-21T12:11:48;3.70;;;1.23;;
14247;SDS011;7208;49.826;6.004;2022-08-21T12:14:16;2.05;;;1.30;;
14247;SDS011;7208;49.826;6.004;2022-08-21T12:16:46;1.67;;;1.10;;
14247;SDS011;7208;49.826;6.004;2022-08-21T12:24:42;3.88;;;1.20;;
14247;SDS011;7208;49.826;6.004;2022-08-21T12:29:55;3.13;;;1.20;;
14247;SDS011;7208;49.826;6.004;2022-08-21T12:32:23;2.75;;;1.23;;
14247;SDS011;7208;49.826;6.004;2022-08-21T12:35:05;2.03;;;1.20;;
14247;SDS011;7208;49.826;6.004;2022-08-21T12:37:40;2.50;;;1.30;;
14247;SDS011;7208;49.826;6.004;2022-08-21T12:40:10;3.00;;;1.20;;
14247;SDS011;7208;49.826;6.004;2022-08-21T12:42:38;2.28;;;0.85;;
14247;SDS011;7208;49.826;6.004;2022-08-21T12:45:52;1.70;;;1.20;;
14247;SDS011;7208;49.826;6.004;2022-08-21T12:50:20;3.38;;;1.23;;
14247;SDS011;7208;49.826;6.004;2022-08-21T12:55:29;1.85;;;1.10;;
14247;SDS011;7208;49.826;6.004;2022-08-21T12:57:56;2.90;;;1.23;;
14247;SDS011;7208;49.826;6.004;2022-08-21T13:00:23;2.50;;;1.30;;
14247;SDS011;7208;49.826;6.004;2022-08-21T13:02:50;2.53;;;1.40;;
14247;SDS011;7208;49.826;6.004;2022-08-21T13:05:39;1.80;;;1.23;;
14247;SDS011;7208;49.826;6.004;2022-08-21T13:08:04;3.92;;;1.48;;
14247;SDS011;7208;49.826;6.004;2022-08-21T13:10:31;2.92;;;1.17;;
14247;SDS011;7208;49.826;6.004;2022-08-21T13:13:05;2.03;;;0.90;;
14247;SDS011;7208;49.826;6.004;2022-08-21T13:15:33;1.83;;;1.00;;
14247;SDS011;7208;49.826;6.004;2022-08-21T13:18:00;2.75;;;1.40;;
14247;SDS011;7208;49.826;6.004;2022-08-21T13:22:55;2.60;;;1.20;;
14247;SDS011;7208;49.826;6.004;2022-08-21T13:25:25;2.67;;;1.00;;
14247;SDS011;7208;49.826;6.004;2022-08-21T13:28:08;2.20;;;1.10;;
14247;SDS011;7208;49.826;6.004;2022-08-21T13:30:39;2.22;;;1.10;;
14247;SDS011;7208;49.826;6.004;2022-08-21T13:33:05;2.22;;;1.55;;
14247;SDS011;7208;49.826;6.004;2022-08-21T13:35:52;1.35;;;1.10;;
14247;SDS011;7208;49.826;6.004;2022-08-21T13:38:27;1.63;;;1.10;;
14247;SDS011;7208;49.826;6.004;2022-08-21T13:40:55;1.42;;;1.13;;
14247;SDS011;7208;49.826;6.004;2022-08-21T13:43:22;1.50;;;1.10;;
14247;SDS011;7208;49.826;6.004;2022-08-21T13:45:52;2.30;;;1.08;;
14247;SDS011;7208;49.826;6.004;2022-08-21T13:48:20;2.50;;;1.10;;
14247;SDS011;7208;49.826;6.004;2022-08-21T13:50:47;2.30;;;0.90;;
14247;SDS011;7208;49.826;6.004;2022-08-21T13:55:47;2.33;;;0.98;;
14247;SDS011;7208;49.826;6.004;2022-08-21T13:58:23;3.75;;;1.13;;
14247;SDS011;7208;49.826;6.004;2022-08-21T14:00:49;2.30;;;1.08;;
14247;SDS011;7208;49.826;6.004;2022-08-21T14:03:31;1.98;;;1.20;;
14247;SDS011;7208;49.826;6.004;2022-08-21T14:05:59;2.60;;;1.10;;
14247;SDS011;7208;49.826;6.004;2022-08-21T14:10:51;1.80;;;1.02;;
14247;SDS011;7208;49.826;6.004;2022-08-21T14:13:29;3.33;;;1.27;;
14247;SDS011;7208;49.826;6.004;2022-08-21T14:15:59;2.00;;;1.23;;
14247;SDS011;7208;49.826;6.004;2022-08-21T14:18:26;1.63;;;0.95;;
14247;SDS011;7208;49.826;6.004;2022-08-21T14:21:05;1.42;;;1.00;;
14247;SDS011;7208;49.826;6.004;2022-08-21T14:23:32;2.80;;;1.02;;
14247;SDS011;7208;49.826;6.004;2022-08-21T14:25:59;2.22;;;0.95;;
14247;SDS011;7208;49.826;6.004;2022-08-21T14:28:26;1.85;;;1.30;;
14247;SDS011;7208;49.826;6.004;2022-08-21T14:30:53;2.40;;;1.30;;
14247;SDS011;7208;49.826;6.004;2022-08-21T14:35:49;2.67;;;1.13;;
14247;SDS011;7208;49.826;6.004;2022-08-21T14:38:15;2.50;;;1.48;;
14247;SDS011;7208;49.826;6.004;2022-08-21T14:40:42;2.30;;;1.10;;
14247;SDS011;7208;49.826;6.004;2022-08-21T14:43:08;3.63;;;1.15;;
14247;SDS011;7208;49.826;6.004;2022-08-21T14:45:34;3.33;;;1.10;;
14247;SDS011;7208;49.826;6.004;2022-08-21T14:48:02;3.08;;;1.23;;
14247;SDS011;7208;49.826;6.004;2022-08-21T14:50:28;2.28;;;1.30;;
14247;SDS011;7208;49.826;6.004;2022-08-21T14:52:54;2.95;;;1.42;;
14247;SDS011;7208;49.826;6.004;2022-08-21T14:55:21;1.83;;;1.00;;
14247;SDS011;7208;49.826;6.004;2022-08-21T14:57:47;2.53;;;1.17;;
14247;SDS011;7208;49.826;6.004;2022-08-21T15:00:15;2.05;;;1.00;;
14247;SDS011;7208;49.826;6.004;2022-08-21T15:02:42;2.88;;;1.25;;
14247;SDS011;7208;49.826;6.004;2022-08-21T15:05:08;2.90;;;1.02;;
14247;SDS011;7208;49.826;6.004;2022-08-21T15:07:34;3.70;;;1.20;;
14247;SDS011;7208;49.826;6.004;2022-08-21T15:10:00;4.00;;;1.17;;
14247;SDS011;7208;49.826;6.004;2022-08-21T15:12:26;2.13;;;1.15;;
14247;SDS011;7208;49.826;6.004;2022-08-21T15:14:52;2.40;;;1.10;;
14247;SDS011;7208;49.826;6.004;2022-08-21T15:17:19;1.83;;;1.00;;
14247;SDS011;7208;49.826;6.004;2022-08-21T15:19:45;2.60;;;1.17;;
14247;SDS011;7208;49.826;6.004;2022-08-21T15:22:11;1.97;;;1.20;;
14247;SDS011;7208;49.826;6.004;2022-08-21T15:24:37;7.30;;;1.38;;
14247;SDS011;7208;49.826;6.004;2022-08-21T15:27:04;2.07;;;0.90;;
14247;SDS011;7208;49.826;6.004;2022-08-21T15:29:32;2.37;;;1.07;;
14247;SDS011;7208;49.826;6.004;2022-08-21T15:31:59;2.87;;;1.50;;
14247;SDS011;7208;49.826;6.004;2022-08-21T15:34:26;2.87;;;1.30;;
14247;SDS011;7208;49.826;6.004;2022-08-21T15:36:53;2.30;;;1.57;;
14247;SDS011;7208;49.826;6.004;2022-08-21T15:39:19;2.23;;;1.13;;
14247;SDS011;7208;49.826;6.004;2022-08-21T15:41:45;2.87;;;1.00;;
14247;SDS011;7208;49.826;6.004;2022-08-21T15:44:11;2.63;;;1.40;;
14247;SDS011;7208;49.826;6.004;2022-08-21T15:46:38;1.13;;;1.00;;
14247;SDS011;7208;49.826;6.004;2022-08-21T15:49:05;2.27;;;1.10;;
14247;SDS011;7208;49.826;6.004;2022-08-21T15:51:31;2.33;;;1.20;;
14247;SDS011;7208;49.826;6.004;2022-08-21T15:53:57;2.40;;;1.27;;
14247;SDS011;7208;49.826;6.004;2022-08-21T15:56:24;3.77;;;1.30;;
14247;SDS011;7208;49.826;6.004;2022-08-21T15:58:50;3.43;;;1.10;;
14247;SDS011;7208;49.826;6.004;2022-08-21T16:01:18;3.07;;;1.20;;
14247;SDS011;7208;49.826;6.004;2022-08-21T16:03:46;2.27;;;1.30;;
14247;SDS011;7208;49.826;6.004;2022-08-21T16:06:13;1.97;;;1.20;;
14247;SDS011;7208;49.826;6.004;2022-08-21T16:08:39;3.35;;;1.25;;
14247;SDS011;7208;49.826;6.004;2022-08-21T16:11:05;4.75;;;1.45;;
14247;SDS011;7208;49.826;6.004;2022-08-21T16:13:36;2.87;;;1.30;;
14247;SDS011;7208;49.826;6.004;2022-08-21T16:16:03;2.20;;;1.03;;
14247;SDS011;7208;49.826;6.004;2022-08-21T16:18:29;2.03;;;1.10;;
14247;SDS011;7208;49.826;6.004;2022-08-21T16:20:56;3.20;;;1.35;;
14247;SDS011;7208;49.826;6.004;2022-08-21T16:23:22;1.83;;;1.13;;
14247;SDS011;7208;49.826;6.004;2022-08-21T16:25:48;1.83;;;1.25;;
14247;SDS011;7208;49.826;6.004;2022-08-21T16:28:15;3.28;;;1.15;;
14247;SDS011;7208;49.826;6.004;2022-08-21T16:30:43;1.83;;;1.20;;
14247;SDS011;7208;49.826;6.004;2022-08-21T16:33:19;2.57;;;1.10;;
14247;SDS011;7208;49.826;6.004;2022-08-21T16:35:45;3.13;;;1.33;;
14247;SDS011;7208;49.826;6.004;2022-08-21T16:38:12;2.70;;;1.10;;
14247;SDS011;7208;49.826;6.004;2022-08-21T16:40:38;2.27;;;1.40;;
14247;SDS011;7208;49.826;6.004;2022-08-21T16:43:04;3.07;;;1.33;;